sensor_id;sensor_type;location;lat;lon;timestamp;pressure;altitude;pressure_sealevel;temperature;humidity
46111;BME280;31849;55.992;37.252;2022-08-25T00:04:11;100206.63;;;17.97;53.80
46111;BME280;31849;55.992;37.252;2022-08-25T00:09:17;100209.28;;;17.95;53.80
46111;BME280;31849;55.992;37.252;2022-08-25T00:14:27;100204.13;;;17.90;53.94
46111;BME280;31849;55.992;37.252;2022-08-25T00:19:33;100201.59;;;17.83;54.17
46111;BME280;31849;55.992;37.252;2022-08-25T00:24:38;100203.69;;;17.67;54.63
46111;BME280;31849;55.992;37.252;2022-08-25T00:29:44;100200.31;;;17.60;54.46
46111;BME280;31849;55.992;37.252;2022-08-25T00:34:48;100203.88;;;17.56;54.37
46111;BME280;31849;55.992;37.252;2022-08-25T00:39:51;100200.44;;;17.54;54.32
46111;BME280;31849;55.992;37.252;2022-08-25T00:44:59;100178.75;;;17.41;55.14
46111;BME280;31849;55.992;37.252;2022-08-25T00:50:07;100189.19;;;17.46;55.61
46111;BME280;31849;55.992;37.252;2022-08-25T00:55:16;100198.75;;;17.50;55.49
46111;BME280;31849;55.992;37.252;2022-08-25T01:00:25;100191.81;;;17.46;55.81
46111;BME280;31849;55.992;37.252;2022-08-25T01:05:29;100201.63;;;17.37;55.35
46111;BME280;31849;55.992;37.252;2022-08-25T01:10:34;100196.41;;;17.34;55.23
46111;BME280;31849;55.992;37.252;2022-08-25T01:15:40;100195.56;;;17.32;55.12
46111;BME280;31849;55.992;37.252;2022-08-25T01:20:48;100199.13;;;17.30;55.01
46111;BME280;31849;55.992;37.252;2022-08-25T01:25:57;100193.97;;;17.25;55.27
46111;BME280;31849;55.992;37.252;2022-08-25T01:31:04;100196.63;;;17.22;55.07
46111;BME280;31849;55.992;37.252;2022-08-25T01:36:28;100195.69;;;17.25;54.96
46111;BME280;31849;55.992;37.252;2022-08-25T01:41:40;100199.28;;;17.20;55.08
46111;BME280;31849;55.992;37.252;2022-08-25T01:46:47;100195.13;;;17.07;55.59
46111;BME280;31849;55.992;37.252;2022-08-25T01:51:56;100194.34;;;17.03;55.89
46111;BME280;31849;55.992;37.252;2022-08-25T01:57:02;100196.97;;;17.03;55.45
46111;BME280;31849;55.992;37.252;2022-08-25T02:02:07;100199.66;;;16.99;55.49
46111;BME280;31849;55.992;37.252;2022-08-25T02:07:12;100196.16;;;17.00;56.28
46111;BME280;31849;55.992;37.252;2022-08-25T02:12:16;100198.84;;;16.97;55.99
46111;BME280;31849;55.992;37.252;2022-08-25T02:17:39;100192.03;;;16.82;56.40
46111;BME280;31849;55.992;37.252;2022-08-25T02:22:44;100208.53;;;16.92;56.56
46111;BME280;31849;55.992;37.252;2022-08-25T02:27:57;100202.47;;;16.86;56.40
46111;BME280;31849;55.992;37.252;2022-08-25T02:33:01;100196.41;;;16.81;56.88
46111;BME280;31849;55.992;37.252;2022-08-25T02:38:06;100199.91;;;16.82;57.20
46111;BME280;31849;55.992;37.252;2022-08-25T02:43:11;100195.53;;;16.82;57.00
46111;BME280;31849;55.992;37.252;2022-08-25T02:48:14;100192.81;;;16.90;56.91
46111;BME280;31849;55.992;37.252;2022-08-25T02:53:20;100189.97;;;17.02;56.55
46111;BME280;31849;55.992;37.252;2022-08-25T02:58:24;100188.16;;;17.06;56.13
46111;BME280;31849;55.992;37.252;2022-08-25T03:03:28;100189.63;;;17.22;55.89
46111;BME280;31849;55.992;37.252;2022-08-25T03:08:34;100192.81;;;17.40;55.59
46111;BME280;31849;55.992;37.252;2022-08-25T03:13:37;100190.09;;;17.45;55.49
46111;BME280;31849;55.992;37.252;2022-08-25T03:18:41;100190.41;;;17.73;55.00
46111;BME280;31849;55.992;37.252;2022-08-25T03:23:46;100188.09;;;18.01;54.37
46111;BME280;31849;55.992;37.252;2022-08-25T03:28:50;100198.88;;;18.30;54.47
46111;BME280;31849;55.992;37.252;2022-08-25T03:33:57;100190.28;;;18.60;53.68
46111;BME280;31849;55.992;37.252;2022-08-25T03:39:02;100190.44;;;18.92;53.33
46111;BME280;31849;55.992;37.252;2022-08-25T03:44:08;100179.66;;;19.01;53.04
46111;BME280;31849;55.992;37.252;2022-08-25T03:49:14;100184.59;;;19.13;53.07
46111;BME280;31849;55.992;37.252;2022-08-25T03:54:21;100185.59;;;19.42;52.32
46111;BME280;31849;55.992;37.252;2022-08-25T03:59:25;100180.69;;;19.61;51.59
46111;BME280;31849;55.992;37.252;2022-08-25T04:04:31;100171.81;;;21.32;48.24
46111;BME280;31849;55.992;37.252;2022-08-25T04:09:37;100177.88;;;26.72;37.51
46111;BME280;31849;55.992;37.252;2022-08-25T04:14:41;100185.19;;;29.63;33.02
46111;BME280;31849;55.992;37.252;2022-08-25T04:19:45;100183.78;;;31.06;30.49
46111;BME280;31849;55.992;37.252;2022-08-25T04:24:50;100177.88;;;33.55;27.32
46111;BME280;31849;55.992;37.252;2022-08-25T04:29:54;100164.78;;;35.10;24.45
46111;BME280;31849;55.992;37.252;2022-08-25T04:34:57;100165.75;;;32.54;27.36
46111;BME280;31849;55.992;37.252;2022-08-25T04:40:04;100158.47;;;31.55;29.01
46111;BME280;31849;55.992;37.252;2022-08-25T04:45:09;100165.50;;;34.44;25.60
46111;BME280;31849;55.992;37.252;2022-08-25T04:50:12;100156.91;;;37.28;22.40
46111;BME280;31849;55.992;37.252;2022-08-25T04:55:17;100166.28;;;39.59;19.86
46111;BME280;31849;55.992;37.252;2022-08-25T05:00:21;100148.41;;;40.74;18.55
46111;BME280;31849;55.992;37.252;2022-08-25T05:05:25;100160.56;;;41.99;17.97
46111;BME280;31849;55.992;37.252;2022-08-25T05:10:31;100160.72;;;43.62;16.05
46111;BME280;31849;55.992;37.252;2022-08-25T05:15:34;100159.00;;;42.98;16.61
46111;BME280;31849;55.992;37.252;2022-08-25T05:20:54;100154.34;;;37.95;20.21
46111;BME280;31849;55.992;37.252;2022-08-25T05:26:05;100143.63;;;34.47;24.74
46111;BME280;31849;55.992;37.252;2022-08-25T05:31:10;100147.97;;;33.37;25.81
46111;BME280;31849;55.992;37.252;2022-08-25T05:36:16;100143.03;;;37.13;22.54
46111;BME280;31849;55.992;37.252;2022-08-25T05:41:26;100150.13;;;40.29;18.46
46111;BME280;31849;55.992;37.252;2022-08-25T05:46:29;100142.91;;;42.01;16.79
46111;BME280;31849;55.992;37.252;2022-08-25T05:51:33;100153.66;;;45.03;14.10
46111;BME280;31849;55.992;37.252;2022-08-25T05:56:38;100144.53;;;46.52;13.07
46111;BME280;31849;55.992;37.252;2022-08-25T06:01:42;100140.66;;;45.37;13.36
46111;BME280;31849;55.992;37.252;2022-08-25T06:07:02;100142.66;;;45.75;12.97
46111;BME280;31849;55.992;37.252;2022-08-25T06:12:07;100148.72;;;46.61;12.81
46111;BME280;31849;55.992;37.252;2022-08-25T06:17:12;100155.47;;;46.65;12.46
46111;BME280;31849;55.992;37.252;2022-08-25T06:22:15;100150.59;;;49.41;10.72
46111;BME280;31849;55.992;37.252;2022-08-25T06:27:21;100159.56;;;51.64;9.65
46111;BME280;31849;55.992;37.252;2022-08-25T06:32:24;100154.66;;;51.44;9.12
46111;BME280;31849;55.992;37.252;2022-08-25T06:37:28;100153.81;;;52.15;9.13
46111;BME280;31849;55.992;37.252;2022-08-25T06:42:33;100151.69;;;53.50;8.20
46111;BME280;31849;55.992;37.252;2022-08-25T06:47:37;100145.16;;;54.49;7.38
46111;BME280;31849;55.992;37.252;2022-08-25T06:52:40;100136.91;;;55.25;7.11
46111;BME280;31849;55.992;37.252;2022-08-25T06:57:45;100140.97;;;54.31;6.97
46111;BME280;31849;55.992;37.252;2022-08-25T07:02:50;100128.25;;;51.36;8.25
46111;BME280;31849;55.992;37.252;2022-08-25T07:07:54;100123.19;;;53.22;7.52
46111;BME280;31849;55.992;37.252;2022-08-25T07:12:59;100134.88;;;54.29;7.22
46111;BME280;31849;55.992;37.252;2022-08-25T07:18:03;100128.63;;;53.55;7.02
46111;BME280;31849;55.992;37.252;2022-08-25T07:23:07;100127.56;;;54.85;6.07
46111;BME280;31849;55.992;37.252;2022-08-25T07:28:12;100120.94;;;54.55;6.41
46111;BME280;31849;55.992;37.252;2022-08-25T07:33:16;100122.28;;;53.70;6.81
46111;BME280;31849;55.992;37.252;2022-08-25T07:38:20;100114.38;;;52.83;7.04
46111;BME280;31849;55.992;37.252;2022-08-25T07:43:25;100118.50;;;52.37;7.08
46111;BME280;31849;55.992;37.252;2022-08-25T07:48:30;100112.75;;;53.55;6.46
46111;BME280;31849;55.992;37.252;2022-08-25T07:53:34;100104.38;;;52.82;6.96
46111;BME280;31849;55.992;37.252;2022-08-25T07:58:40;100103.81;;;52.80;7.10
46111;BME280;31849;55.992;37.252;2022-08-25T08:03:45;100090.19;;;50.70;7.83
46111;BME280;31849;55.992;37.252;2022-08-25T08:08:53;100079.44;;;49.07;8.64
46111;BME280;31849;55.992;37.252;2022-08-25T08:14:01;100080.31;;;48.60;8.84
46111;BME280;31849;55.992;37.252;2022-08-25T08:19:05;100068.69;;;47.25;10.00
46111;BME280;31849;55.992;37.252;2022-08-25T08:24:09;100073.72;;;46.91;10.26
46111;BME280;31849;55.992;37.252;2022-08-25T08:29:35;100060.75;;;45.07;11.11
46111;BME280;31849;55.992;37.252;2022-08-25T08:34:41;100054.22;;;44.94;11.65
46111;BME280;31849;55.992;37.252;2022-08-25T08:39:45;100048.66;;;43.61;12.01
46111;BME280;31849;55.992;37.252;2022-08-25T08:45:16;100047.69;;;42.42;12.68
46111;BME280;31849;55.992;37.252;2022-08-25T08:50:28;100042.66;;;40.69;14.46
46111;BME280;31849;55.992;37.252;2022-08-25T08:55:38;100035.34;;;39.85;14.77
46111;BME280;31849;55.992;37.252;2022-08-25T09:00:46;100034.31;;;39.86;14.49
46111;BME280;31849;55.992;37.252;2022-08-25T09:05:56;100030.53;;;39.25;14.71
46111;BME280;31849;55.992;37.252;2022-08-25T09:11:11;100023.28;;;39.17;14.68
46111;BME280;31849;55.992;37.252;2022-08-25T09:16:23;100026.63;;;38.38;14.97
46111;BME280;31849;55.992;37.252;2022-08-25T09:21:53;100021.19;;;37.38;15.61
46111;BME280;31849;55.992;37.252;2022-08-25T09:27:07;100012.09;;;37.63;15.23
46111;BME280;31849;55.992;37.252;2022-08-25T09:32:14;100012.72;;;37.06;14.71
46111;BME280;31849;55.992;37.252;2022-08-25T09:37:26;100005.56;;;36.97;14.62
46111;BME280;31849;55.992;37.252;2022-08-25T09:42:47;100006.50;;;36.79;14.97
46111;BME280;31849;55.992;37.252;2022-08-25T09:48:00;99995.50;;;36.81;15.10
46111;BME280;31849;55.992;37.252;2022-08-25T09:53:11;99995.84;;;36.16;15.90
46111;BME280;31849;55.992;37.252;2022-08-25T09:58:22;99991.16;;;34.98;16.83
46111;BME280;31849;55.992;37.252;2022-08-25T10:03:28;99987.06;;;34.94;17.31
46111;BME280;31849;55.992;37.252;2022-08-25T10:08:40;99973.28;;;35.15;16.72
46111;BME280;31849;55.992;37.252;2022-08-25T10:14:01;99975.09;;;35.52;16.36
46111;BME280;31849;55.992;37.252;2022-08-25T10:19:09;99964.59;;;35.67;16.60
46111;BME280;31849;55.992;37.252;2022-08-25T10:24:13;99968.16;;;35.22;17.51
46111;BME280;31849;55.992;37.252;2022-08-25T10:29:31;99961.97;;;35.39;17.48
46111;BME280;31849;55.992;37.252;2022-08-25T10:34:45;99953.59;;;35.33;17.89
46111;BME280;31849;55.992;37.252;2022-08-25T10:40:11;99952.03;;;35.02;17.41
46111;BME280;31849;55.992;37.252;2022-08-25T10:45:21;99947.41;;;34.47;17.82
46111;BME280;31849;55.992;37.252;2022-08-25T10:50:46;99940.75;;;34.22;18.39
46111;BME280;31849;55.992;37.252;2022-08-25T10:56:02;99936.50;;;34.20;17.74
46111;BME280;31849;55.992;37.252;2022-08-25T11:01:15;99935.19;;;34.33;18.30
46111;BME280;31849;55.992;37.252;2022-08-25T11:06:36;99925.97;;;34.26;18.39
46111;BME280;31849;55.992;37.252;2022-08-25T11:11:47;99918.56;;;34.38;18.83
46111;BME280;31849;55.992;37.252;2022-08-25T11:16:58;99912.41;;;34.56;18.40
46111;BME280;31849;55.992;37.252;2022-08-25T11:22:13;99899.81;;;34.37;18.40
46111;BME280;31849;55.992;37.252;2022-08-25T11:27:21;99895.59;;;34.34;18.59
46111;BME280;31849;55.992;37.252;2022-08-25T11:32:25;99894.88;;;34.22;18.88
46111;BME280;31849;55.992;37.252;2022-08-25T11:37:43;99879.97;;;34.08;18.89
46111;BME280;31849;55.992;37.252;2022-08-25T11:42:58;99883.50;;;34.18;18.22
46111;BME280;31849;55.992;37.252;2022-08-25T11:48:12;99885.41;;;33.69;18.61
46111;BME280;31849;55.992;37.252;2022-08-25T11:53:24;99884.69;;;33.67;19.05
46111;BME280;31849;55.992;37.252;2022-08-25T11:58:43;99876.06;;;33.83;19.23
46111;BME280;31849;55.992;37.252;2022-08-25T12:04:09;99870.38;;;33.96;18.99
46111;BME280;31849;55.992;37.252;2022-08-25T12:09:20;99870.50;;;33.85;18.79
46111;BME280;31849;55.992;37.252;2022-08-25T12:14:45;99863.84;;;33.79;18.94
46111;BME280;31849;55.992;37.252;2022-08-25T12:19:52;99861.00;;;33.80;18.66
46111;BME280;31849;55.992;37.252;2022-08-25T12:25:02;99852.91;;;33.80;19.12
46111;BME280;31849;55.992;37.252;2022-08-25T12:30:14;99845.69;;;33.81;19.36
46111;BME280;31849;55.992;37.252;2022-08-25T12:35:27;99842.81;;;33.92;19.36
46111;BME280;31849;55.992;37.252;2022-08-25T12:40:36;99850.94;;;33.43;19.68
46111;BME280;31849;55.992;37.252;2022-08-25T12:45:42;99836.31;;;33.56;19.73
46111;BME280;31849;55.992;37.252;2022-08-25T12:50:47;99831.59;;;33.09;19.68
46111;BME280;31849;55.992;37.252;2022-08-25T12:56:04;99839.59;;;33.30;19.35
46111;BME280;31849;55.992;37.252;2022-08-25T13:01:14;99832.22;;;33.32;18.86
46111;BME280;31849;55.992;37.252;2022-08-25T13:06:44;99823.84;;;33.25;19.32
46111;BME280;31849;55.992;37.252;2022-08-25T13:12:03;99817.69;;;33.04;19.89
46111;BME280;31849;55.992;37.252;2022-08-25T13:17:11;99814.59;;;33.18;19.50
46111;BME280;31849;55.992;37.252;2022-08-25T13:22:26;99813.19;;;33.24;19.25
46111;BME280;31849;55.992;37.252;2022-08-25T13:27:34;99807.66;;;33.25;19.48
46111;BME280;31849;55.992;37.252;2022-08-25T13:32:39;99802.81;;;33.19;19.37
46111;BME280;31849;55.992;37.252;2022-08-25T13:37:43;99798.44;;;33.18;19.53
46111;BME280;31849;55.992;37.252;2022-08-25T13:42:50;99805.22;;;33.03;20.14
46111;BME280;31849;55.992;37.252;2022-08-25T13:47:58;99790.59;;;32.76;20.24
46111;BME280;31849;55.992;37.252;2022-08-25T13:53:09;99796.59;;;32.49;20.65
46111;BME280;31849;55.992;37.252;2022-08-25T13:58:16;99791.47;;;32.46;21.16
46111;BME280;31849;55.992;37.252;2022-08-25T14:03:29;99785.91;;;32.28;21.26
46111;BME280;31849;55.992;37.252;2022-08-25T14:08:36;99788.59;;;32.06;21.78
46111;BME280;31849;55.992;37.252;2022-08-25T14:13:43;99779.31;;;31.89;21.80
46111;BME280;31849;55.992;37.252;2022-08-25T14:18:50;99768.97;;;31.85;21.79
46111;BME280;31849;55.992;37.252;2022-08-25T14:23:55;99771.53;;;31.65;21.69
46111;BME280;31849;55.992;37.252;2022-08-25T14:29:02;99772.66;;;31.63;22.08
46111;BME280;31849;55.992;37.252;2022-08-25T14:34:13;99767.81;;;31.56;22.85
46111;BME280;31849;55.992;37.252;2022-08-25T14:39:19;99763.69;;;31.41;22.58
46111;BME280;31849;55.992;37.252;2022-08-25T14:44:25;99757.88;;;31.36;22.66
46111;BME280;31849;55.992;37.252;2022-08-25T14:49:34;99752.47;;;31.15;22.57
46111;BME280;31849;55.992;37.252;2022-08-25T14:54:39;99744.69;;;31.12;23.05
46111;BME280;31849;55.992;37.252;2022-08-25T14:59:44;99747.28;;;31.02;24.00
46111;BME280;31849;55.992;37.252;2022-08-25T15:04:50;99750.72;;;30.93;23.60
46111;BME280;31849;55.992;37.252;2022-08-25T15:09:55;99742.69;;;30.70;23.86
46111;BME280;31849;55.992;37.252;2022-08-25T15:15:01;99739.44;;;30.55;25.08
46111;BME280;31849;55.992;37.252;2022-08-25T15:20:06;99743.72;;;30.35;25.43
46111;BME280;31849;55.992;37.252;2022-08-25T15:25:12;99741.53;;;30.17;25.31
46111;BME280;31849;55.992;37.252;2022-08-25T15:30:17;99732.41;;;30.09;25.23
46111;BME280;31849;55.992;37.252;2022-08-25T15:35:21;99735.44;;;29.93;25.50
46111;BME280;31849;55.992;37.252;2022-08-25T15:40:31;99733.84;;;29.79;25.96
46111;BME280;31849;55.992;37.252;2022-08-25T15:45:40;99721.78;;;29.62;26.69
46111;BME280;31849;55.992;37.252;2022-08-25T15:50:43;99732.19;;;29.42;26.75
46111;BME280;31849;55.992;37.252;2022-08-25T15:55:49;99726.66;;;29.21;26.87
46111;BME280;31849;55.992;37.252;2022-08-25T16:00:56;99730.94;;;29.00;29.16
46111;BME280;31849;55.992;37.252;2022-08-25T16:06:02;99733.47;;;28.77;30.05
46111;BME280;31849;55.992;37.252;2022-08-25T16:11:15;99732.50;;;28.54;31.60
46111;BME280;31849;55.992;37.252;2022-08-25T16:16:22;99737.25;;;28.24;31.40
46111;BME280;31849;55.992;37.252;2022-08-25T16:21:31;99733.88;;;27.97;32.34
46111;BME280;31849;55.992;37.252;2022-08-25T16:26:43;99734.19;;;27.66;32.97
46111;BME280;31849;55.992;37.252;2022-08-25T16:31:51;99734.47;;;27.36;33.00
46111;BME280;31849;55.992;37.252;2022-08-25T16:36:57;99736.31;;;27.08;34.61
46111;BME280;31849;55.992;37.252;2022-08-25T16:42:01;99737.41;;;26.78;35.77
46111;BME280;31849;55.992;37.252;2022-08-25T16:47:06;99736.09;;;26.57;37.53
46111;BME280;31849;55.992;37.252;2022-08-25T16:52:10;99749.28;;;26.31;38.56
46111;BME280;31849;55.992;37.252;2022-08-25T16:57:29;99749.09;;;26.05;39.36
46111;BME280;31849;55.992;37.252;2022-08-25T17:02:34;99744.97;;;25.85;38.53
46111;BME280;31849;55.992;37.252;2022-08-25T17:07:39;99748.38;;;25.58;40.26
46111;BME280;31849;55.992;37.252;2022-08-25T17:12:44;99749.75;;;25.35;40.97
46111;BME280;31849;55.992;37.252;2022-08-25T17:17:49;99753.09;;;25.23;41.39
46111;BME280;31849;55.992;37.252;2022-08-25T17:22:52;99754.25;;;25.03;41.73
46111;BME280;31849;55.992;37.252;2022-08-25T17:27:56;99761.22;;;24.89;42.02
46111;BME280;31849;55.992;37.252;2022-08-25T17:33:04;99755.94;;;24.73;42.97
46111;BME280;31849;55.992;37.252;2022-08-25T17:38:09;99750.75;;;24.54;43.39
46111;BME280;31849;55.992;37.252;2022-08-25T17:43:13;99753.31;;;24.40;44.19
46111;BME280;31849;55.992;37.252;2022-08-25T17:48:21;99750.47;;;24.27;44.78
46111;BME280;31849;55.992;37.252;2022-08-25T17:53:27;99756.53;;;24.13;44.75
46111;BME280;31849;55.992;37.252;2022-08-25T17:58:32;99759.63;;;24.05;44.91
46111;BME280;31849;55.992;37.252;2022-08-25T18:03:38;99764.47;;;23.97;45.48
46111;BME280;31849;55.992;37.252;2022-08-25T18:08:43;99763.31;;;23.85;45.49
46111;BME280;31849;55.992;37.252;2022-08-25T18:13:54;99759.47;;;23.74;45.92
46111;BME280;31849;55.992;37.252;2022-08-25T18:18:59;99766.13;;;23.65;45.58
46111;BME280;31849;55.992;37.252;2022-08-25T18:24:07;99764.97;;;23.53;45.89
46111;BME280;31849;55.992;37.252;2022-08-25T18:29:11;99764.59;;;23.43;46.87
46111;BME280;31849;55.992;37.252;2022-08-25T18:34:19;99768.31;;;23.39;46.79
46111;BME280;31849;55.992;37.252;2022-08-25T18:39:25;99741.41;;;23.12;46.80
46111;BME280;31849;55.992;37.252;2022-08-25T18:44:46;99747.75;;;23.08;46.99
46111;BME280;31849;55.992;37.252;2022-08-25T18:49:51;99744.06;;;22.93;48.08
46111;BME280;31849;55.992;37.252;2022-08-25T18:54:55;99750.13;;;22.77;47.67
46111;BME280;31849;55.992;37.252;2022-08-25T19:00:00;99760.00;;;22.74;48.42
46111;BME280;31849;55.992;37.252;2022-08-25T19:05:07;99749.00;;;22.64;48.61
46111;BME280;31849;55.992;37.252;2022-08-25T19:10:11;99748.72;;;22.51;49.30
46111;BME280;31849;55.992;37.252;2022-08-25T19:15:15;99744.00;;;22.39;49.61
46111;BME280;31849;55.992;37.252;2022-08-25T19:20:30;99741.88;;;22.26;50.25
46111;BME280;31849;55.992;37.252;2022-08-25T19:25:36;99727.47;;;22.13;49.99
46111;BME280;31849;55.992;37.252;2022-08-25T19:30:43;99729.34;;;22.11;50.12
46111;BME280;31849;55.992;37.252;2022-08-25T19:35:53;99735.00;;;22.03;50.07
46111;BME280;31849;55.992;37.252;2022-08-25T19:40:57;99734.59;;;21.92;50.28
46111;BME280;31849;55.992;37.252;2022-08-25T19:46:03;99740.47;;;21.80;50.17
46111;BME280;31849;55.992;37.252;2022-08-25T19:51:08;99746.84;;;21.33;52.96
46111;BME280;31849;55.992;37.252;2022-08-25T19:56:12;99752.47;;;21.25;51.41
46111;BME280;31849;55.992;37.252;2022-08-25T20:01:17;99736.41;;;21.30;50.94
46111;BME280;31849;55.992;37.252;2022-08-25T20:06:23;99742.53;;;21.30;51.63
46111;BME280;31849;55.992;37.252;2022-08-25T20:11:29;99745.31;;;21.27;51.77
46111;BME280;31849;55.992;37.252;2022-08-25T20:16:34;99739.38;;;21.22;52.20
46111;BME280;31849;55.992;37.252;2022-08-25T20:21:39;99738.56;;;21.20;52.27
46111;BME280;31849;55.992;37.252;2022-08-25T20:26:45;99745.97;;;21.12;52.07
46111;BME280;31849;55.992;37.252;2022-08-25T20:31:49;99743.50;;;21.07;51.92
46111;BME280;31849;55.992;37.252;2022-08-25T20:36:55;99731.59;;;20.97;52.24
46111;BME280;31849;55.992;37.252;2022-08-25T20:41:59;99742.22;;;20.95;52.15
46111;BME280;31849;55.992;37.252;2022-08-25T20:47:07;99743.97;;;20.96;51.83
46111;BME280;31849;55.992;37.252;2022-08-25T20:52:13;99744.19;;;20.90;51.91
46111;BME280;31849;55.992;37.252;2022-08-25T20:57:18;99736.56;;;20.82;52.38
46111;BME280;31849;55.992;37.252;2022-08-25T21:02:27;99737.56;;;20.80;52.07
46111;BME280;31849;55.992;37.252;2022-08-25T21:07:33;99746.47;;;20.77;52.25
46111;BME280;31849;55.992;37.252;2022-08-25T21:12:37;99745.13;;;20.67;52.01
46111;BME280;31849;55.992;37.252;2022-08-25T21:17:43;99748.94;;;20.58;52.31
46111;BME280;31849;55.992;37.252;2022-08-25T21:22:49;99744.81;;;20.51;52.44
46111;BME280;31849;55.992;37.252;2022-08-25T21:27:54;99751.69;;;20.33;52.56
46111;BME280;31849;55.992;37.252;2022-08-25T21:32:58;99758.16;;;20.24;52.62
46111;BME280;31849;55.992;37.252;2022-08-25T21:38:05;99759.06;;;20.23;52.04
46111;BME280;31849;55.992;37.252;2022-08-25T21:43:08;99759.25;;;20.18;52.37
46111;BME280;31849;55.992;37.252;2022-08-25T21:48:13;99768.09;;;20.17;52.63
46111;BME280;31849;55.992;37.252;2022-08-25T21:53:19;99761.94;;;20.17;52.98
46111;BME280;31849;55.992;37.252;2022-08-25T21:58:23;99760.44;;;20.10;52.67
46111;BME280;31849;55.992;37.252;2022-08-25T22:03:27;99763.25;;;20.05;53.17
46111;BME280;31849;55.992;37.252;2022-08-25T22:08:34;99756.31;;;20.02;53.17
46111;BME280;31849;55.992;37.252;2022-08-25T22:13:40;99752.28;;;19.92;53.04
46111;BME280;31849;55.992;37.252;2022-08-25T22:18:46;99750.09;;;19.80;53.06
46111;BME280;31849;55.992;37.252;2022-08-25T22:23:53;99750.16;;;19.78;53.19
46111;BME280;31849;55.992;37.252;2022-08-25T22:28:57;99753.88;;;19.71;53.71
46111;BME280;31849;55.992;37.252;2022-08-25T22:34:02;99748.88;;;19.63;53.92
46111;BME280;31849;55.992;37.252;2022-08-25T22:39:08;99748.94;;;19.62;53.87
46111;BME280;31849;55.992;37.252;2022-08-25T22:44:13;99747.53;;;19.51;54.93
46111;BME280;31849;55.992;37.252;2022-08-25T22:49:16;99748.81;;;19.40;54.76
46111;BME280;31849;55.992;37.252;2022-08-25T22:54:23;99751.34;;;19.43;54.87
46111;BME280;31849;55.992;37.252;2022-08-25T22:59:26;99745.44;;;19.36;54.95
46111;BME280;31849;55.992;37.252;2022-08-25T23:04:31;99743.72;;;19.35;55.02
46111;BME280;31849;55.992;37.252;2022-08-25T23:09:36;99750.56;;;19.14;56.31
46111;BME280;31849;55.992;37.252;2022-08-25T23:14:40;99737.81;;;19.00;55.79
46111;BME280;31849;55.992;37.252;2022-08-25T23:19:45;99745.78;;;18.98;55.97
46111;BME280;31849;55.992;37.252;2022-08-25T23:24:50;99739.56;;;18.73;56.75
46111;BME280;31849;55.992;37.252;2022-08-25T23:29:54;99737.78;;;18.73;56.95
46111;BME280;31849;55.992;37.252;2022-08-25T23:34:58;99723.22;;;18.61;56.98
46111;BME280;31849;55.992;37.252;2022-08-25T23:40:03;99742.34;;;18.68;57.80
46111;BME280;31849;55.992;37.252;2022-08-25T23:45:08;99729.13;;;18.41;58.52
46111;BME280;31849;55.992;37.252;2022-08-25T23:50:12;99737.06;;;18.40;57.58
46111;BME280;31849;55.992;37.252;2022-08-25T23:55:17;99748.00;;;18.26;56.42
